sensor_id;sensor_type;location;lat;lon;timestamp;P1;durP1;ratioP1;P2;durP2;ratioP2
12687;SDS011;6408;59.388;17.798;2023-04-29T00:02:12;0.40;;;0.40;;
12687;SDS011;6408;59.388;17.798;2023-04-29T00:04:39;0.70;;;0.70;;
12687;SDS011;6408;59.388;17.798;2023-04-29T00:07:07;1.00;;;0.77;;
12687;SDS011;6408;59.388;17.798;2023-04-29T00:09:34;1.60;;;0.70;;
12687;SDS011;6408;59.388;17.798;2023-04-29T00:12:04;0.80;;;0.80;;
12687;SDS011;6408;59.388;17.798;2023-04-29T00:14:31;0.90;;;0.70;;
12687;SDS011;6408;59.388;17.798;2023-04-29T00:16:58;0.90;;;0.90;;
12687;SDS011;6408;59.388;17.798;2023-04-29T00:19:25;0.77;;;0.70;;
12687;SDS011;6408;59.388;17.798;2023-04-29T00:21:53;0.70;;;0.70;;
12687;SDS011;6408;59.388;17.798;2023-04-29T00:24:20;0.70;;;0.70;;
12687;SDS011;6408;59.388;17.798;2023-04-29T00:26:47;0.80;;;0.70;;
12687;SDS011;6408;59.388;17.798;2023-04-29T00:29:16;0.60;;;0.60;;
12687;SDS011;6408;59.388;17.798;2023-04-29T00:31:43;0.57;;;0.57;;
12687;SDS011;6408;59.388;17.798;2023-04-29T00:34:10;0.70;;;0.70;;
12687;SDS011;6408;59.388;17.798;2023-04-29T00:36:37;0.70;;;0.70;;
12687;SDS011;6408;59.388;17.798;2023-04-29T00:39:04;0.73;;;0.60;;
12687;SDS011;6408;59.388;17.798;2023-04-29T00:41:32;1.27;;;0.70;;
12687;SDS011;6408;59.388;17.798;2023-04-29T00:43:59;0.83;;;0.80;;
12687;SDS011;6408;59.388;17.798;2023-04-29T00:46:27;0.60;;;0.60;;
12687;SDS011;6408;59.388;17.798;2023-04-29T00:48:55;1.23;;;0.83;;
12687;SDS011;6408;59.388;17.798;2023-04-29T00:51:22;0.93;;;0.77;;
12687;SDS011;6408;59.388;17.798;2023-04-29T00:53:50;1.40;;;0.90;;
12687;SDS011;6408;59.388;17.798;2023-04-29T00:56:18;1.50;;;0.77;;
12687;SDS011;6408;59.388;17.798;2023-04-29T00:58:46;1.90;;;0.63;;
12687;SDS011;6408;59.388;17.798;2023-04-29T01:01:15;0.73;;;0.70;;
12687;SDS011;6408;59.388;17.798;2023-04-29T01:03:45;0.67;;;0.63;;
12687;SDS011;6408;59.388;17.798;2023-04-29T01:06:17;0.73;;;0.63;;
12687;SDS011;6408;59.388;17.798;2023-04-29T01:08:56;1.33;;;0.73;;
12687;SDS011;6408;59.388;17.798;2023-04-29T01:11:46;1.27;;;0.50;;
12687;SDS011;6408;59.388;17.798;2023-04-29T01:14:30;2.27;;;0.80;;
12687;SDS011;6408;59.388;17.798;2023-04-29T01:17:02;1.30;;;1.20;;
12687;SDS011;6408;59.388;17.798;2023-04-29T01:19:39;0.90;;;0.70;;
12687;SDS011;6408;59.388;17.798;2023-04-29T01:22:13;0.80;;;0.77;;
12687;SDS011;6408;59.388;17.798;2023-04-29T01:24:44;0.70;;;0.70;;
12687;SDS011;6408;59.388;17.798;2023-04-29T01:27:15;0.67;;;0.67;;
12687;SDS011;6408;59.388;17.798;2023-04-29T01:29:50;1.23;;;0.70;;
12687;SDS011;6408;59.388;17.798;2023-04-29T01:32:23;0.73;;;0.73;;
12687;SDS011;6408;59.388;17.798;2023-04-29T01:35:10;0.73;;;0.70;;
12687;SDS011;6408;59.388;17.798;2023-04-29T01:37:46;0.80;;;0.60;;
12687;SDS011;6408;59.388;17.798;2023-04-29T01:40:25;0.70;;;0.40;;
12687;SDS011;6408;59.388;17.798;2023-04-29T01:42:59;0.93;;;0.80;;
12687;SDS011;6408;59.388;17.798;2023-04-29T01:45:28;1.03;;;0.90;;
12687;SDS011;6408;59.388;17.798;2023-04-29T01:47:58;0.77;;;0.60;;
12687;SDS011;6408;59.388;17.798;2023-04-29T01:50:26;0.87;;;0.60;;
12687;SDS011;6408;59.388;17.798;2023-04-29T01:52:53;2.07;;;0.60;;
12687;SDS011;6408;59.388;17.798;2023-04-29T01:55:21;2.30;;;0.80;;
12687;SDS011;6408;59.388;17.798;2023-04-29T01:57:51;0.60;;;0.60;;
12687;SDS011;6408;59.388;17.798;2023-04-29T02:00:19;0.83;;;0.73;;
12687;SDS011;6408;59.388;17.798;2023-04-29T02:02:46;0.67;;;0.60;;
12687;SDS011;6408;59.388;17.798;2023-04-29T02:05:14;1.27;;;1.00;;
12687;SDS011;6408;59.388;17.798;2023-04-29T02:07:41;0.60;;;0.60;;
12687;SDS011;6408;59.388;17.798;2023-04-29T02:10:10;0.97;;;0.80;;
12687;SDS011;6408;59.388;17.798;2023-04-29T02:12:39;0.90;;;0.80;;
12687;SDS011;6408;59.388;17.798;2023-04-29T02:15:06;1.07;;;0.90;;
12687;SDS011;6408;59.388;17.798;2023-04-29T02:17:35;0.63;;;0.60;;
12687;SDS011;6408;59.388;17.798;2023-04-29T02:20:03;1.77;;;0.80;;
12687;SDS011;6408;59.388;17.798;2023-04-29T02:22:30;0.70;;;0.60;;
12687;SDS011;6408;59.388;17.798;2023-04-29T02:24:58;1.03;;;0.40;;
12687;SDS011;6408;59.388;17.798;2023-04-29T02:27:25;0.60;;;0.60;;
12687;SDS011;6408;59.388;17.798;2023-04-29T02:29:54;1.23;;;0.53;;
12687;SDS011;6408;59.388;17.798;2023-04-29T02:32:21;0.60;;;0.60;;
12687;SDS011;6408;59.388;17.798;2023-04-29T02:34:49;0.73;;;0.60;;
12687;SDS011;6408;59.388;17.798;2023-04-29T02:37:16;2.63;;;0.77;;
12687;SDS011;6408;59.388;17.798;2023-04-29T02:39:43;1.50;;;0.73;;
12687;SDS011;6408;59.388;17.798;2023-04-29T02:42:11;0.53;;;0.47;;
12687;SDS011;6408;59.388;17.798;2023-04-29T02:44:38;1.53;;;0.80;;
12687;SDS011;6408;59.388;17.798;2023-04-29T02:47:08;1.60;;;1.00;;
12687;SDS011;6408;59.388;17.798;2023-04-29T02:49:36;0.80;;;0.60;;
12687;SDS011;6408;59.388;17.798;2023-04-29T02:52:03;0.70;;;0.60;;
12687;SDS011;6408;59.388;17.798;2023-04-29T02:54:30;0.53;;;0.53;;
12687;SDS011;6408;59.388;17.798;2023-04-29T02:56:58;0.70;;;0.70;;
12687;SDS011;6408;59.388;17.798;2023-04-29T02:59:25;2.30;;;0.90;;
12687;SDS011;6408;59.388;17.798;2023-04-29T03:01:53;0.77;;;0.77;;
12687;SDS011;6408;59.388;17.798;2023-04-29T03:04:21;2.43;;;1.00;;
12687;SDS011;6408;59.388;17.798;2023-04-29T03:06:49;0.60;;;0.60;;
12687;SDS011;6408;59.388;17.798;2023-04-29T03:09:16;2.10;;;0.70;;
12687;SDS011;6408;59.388;17.798;2023-04-29T03:11:45;1.00;;;0.70;;
12687;SDS011;6408;59.388;17.798;2023-04-29T03:14:12;1.73;;;0.70;;
12687;SDS011;6408;59.388;17.798;2023-04-29T03:16:40;0.70;;;0.70;;
12687;SDS011;6408;59.388;17.798;2023-04-29T03:19:07;0.70;;;0.70;;
12687;SDS011;6408;59.388;17.798;2023-04-29T03:21:36;3.27;;;0.93;;
12687;SDS011;6408;59.388;17.798;2023-04-29T03:24:03;1.73;;;0.77;;
12687;SDS011;6408;59.388;17.798;2023-04-29T03:26:31;1.07;;;0.80;;
12687;SDS011;6408;59.388;17.798;2023-04-29T03:28:58;1.03;;;0.90;;
12687;SDS011;6408;59.388;17.798;2023-04-29T03:31:25;0.90;;;0.80;;
12687;SDS011;6408;59.388;17.798;2023-04-29T03:33:52;2.20;;;1.40;;
12687;SDS011;6408;59.388;17.798;2023-04-29T03:36:19;0.70;;;0.70;;
12687;SDS011;6408;59.388;17.798;2023-04-29T03:38:48;0.70;;;0.60;;
12687;SDS011;6408;59.388;17.798;2023-04-29T03:41:15;0.70;;;0.63;;
12687;SDS011;6408;59.388;17.798;2023-04-29T03:43:43;0.70;;;0.70;;
12687;SDS011;6408;59.388;17.798;2023-04-29T03:46:10;1.50;;;0.73;;
12687;SDS011;6408;59.388;17.798;2023-04-29T03:48:37;0.70;;;0.70;;
12687;SDS011;6408;59.388;17.798;2023-04-29T03:51:05;1.37;;;0.80;;
12687;SDS011;6408;59.388;17.798;2023-04-29T03:53:33;0.80;;;0.60;;
12687;SDS011;6408;59.388;17.798;2023-04-29T03:56:02;0.50;;;0.50;;
12687;SDS011;6408;59.388;17.798;2023-04-29T03:58:30;0.60;;;0.60;;
12687;SDS011;6408;59.388;17.798;2023-04-29T04:00:57;0.67;;;0.67;;
12687;SDS011;6408;59.388;17.798;2023-04-29T04:03:25;1.53;;;0.60;;
12687;SDS011;6408;59.388;17.798;2023-04-29T04:05:52;1.10;;;0.90;;
12687;SDS011;6408;59.388;17.798;2023-04-29T04:08:20;0.70;;;0.70;;
12687;SDS011;6408;59.388;17.798;2023-04-29T04:10:47;0.70;;;0.70;;
12687;SDS011;6408;59.388;17.798;2023-04-29T04:13:16;0.83;;;0.60;;
12687;SDS011;6408;59.388;17.798;2023-04-29T04:15:48;0.87;;;0.80;;
12687;SDS011;6408;59.388;17.798;2023-04-29T04:18:16;0.80;;;0.80;;
12687;SDS011;6408;59.388;17.798;2023-04-29T04:20:43;1.17;;;0.87;;
12687;SDS011;6408;59.388;17.798;2023-04-29T04:23:11;1.77;;;0.90;;
12687;SDS011;6408;59.388;17.798;2023-04-29T04:25:43;0.80;;;0.80;;
12687;SDS011;6408;59.388;17.798;2023-04-29T04:28:11;0.73;;;0.63;;
12687;SDS011;6408;59.388;17.798;2023-04-29T04:30:39;0.70;;;0.60;;
12687;SDS011;6408;59.388;17.798;2023-04-29T04:33:07;1.23;;;0.80;;
12687;SDS011;6408;59.388;17.798;2023-04-29T04:35:35;0.70;;;0.70;;
12687;SDS011;6408;59.388;17.798;2023-04-29T04:38:02;1.00;;;0.70;;
12687;SDS011;6408;59.388;17.798;2023-04-29T04:40:30;1.87;;;1.10;;
12687;SDS011;6408;59.388;17.798;2023-04-29T04:42:57;0.63;;;0.63;;
12687;SDS011;6408;59.388;17.798;2023-04-29T04:45:24;0.67;;;0.60;;
12687;SDS011;6408;59.388;17.798;2023-04-29T04:47:55;1.10;;;0.80;;
12687;SDS011;6408;59.388;17.798;2023-04-29T04:50:22;1.77;;;0.70;;
12687;SDS011;6408;59.388;17.798;2023-04-29T04:52:50;0.87;;;0.83;;
12687;SDS011;6408;59.388;17.798;2023-04-29T04:55:17;2.20;;;1.10;;
12687;SDS011;6408;59.388;17.798;2023-04-29T04:57:44;1.23;;;0.90;;
12687;SDS011;6408;59.388;17.798;2023-04-29T05:00:12;0.83;;;0.80;;
12687;SDS011;6408;59.388;17.798;2023-04-29T05:02:39;1.87;;;0.87;;
12687;SDS011;6408;59.388;17.798;2023-04-29T05:05:09;1.30;;;0.80;;
12687;SDS011;6408;59.388;17.798;2023-04-29T05:07:36;1.77;;;1.00;;
12687;SDS011;6408;59.388;17.798;2023-04-29T05:10:04;1.13;;;1.00;;
12687;SDS011;6408;59.388;17.798;2023-04-29T05:12:33;2.67;;;1.00;;
12687;SDS011;6408;59.388;17.798;2023-04-29T05:15:00;1.30;;;0.87;;
12687;SDS011;6408;59.388;17.798;2023-04-29T05:17:28;0.90;;;0.90;;
12687;SDS011;6408;59.388;17.798;2023-04-29T05:19:55;1.00;;;0.90;;
12687;SDS011;6408;59.388;17.798;2023-04-29T05:22:25;2.63;;;1.37;;
12687;SDS011;6408;59.388;17.798;2023-04-29T05:24:52;2.50;;;1.00;;
12687;SDS011;6408;59.388;17.798;2023-04-29T05:27:24;4.50;;;1.03;;
12687;SDS011;6408;59.388;17.798;2023-04-29T05:29:51;1.67;;;1.43;;
12687;SDS011;6408;59.388;17.798;2023-04-29T05:32:18;2.70;;;1.30;;
12687;SDS011;6408;59.388;17.798;2023-04-29T05:34:45;2.50;;;1.20;;
12687;SDS011;6408;59.388;17.798;2023-04-29T05:37:12;3.77;;;1.40;;
12687;SDS011;6408;59.388;17.798;2023-04-29T05:39:41;1.50;;;1.20;;
12687;SDS011;6408;59.388;17.798;2023-04-29T05:42:09;2.80;;;1.30;;
12687;SDS011;6408;59.388;17.798;2023-04-29T05:44:36;4.23;;;1.53;;
12687;SDS011;6408;59.388;17.798;2023-04-29T05:47:04;1.93;;;1.23;;
12687;SDS011;6408;59.388;17.798;2023-04-29T05:49:31;2.37;;;1.40;;
12687;SDS011;6408;59.388;17.798;2023-04-29T05:51:58;2.30;;;1.30;;
12687;SDS011;6408;59.388;17.798;2023-04-29T05:54:30;2.20;;;1.27;;
12687;SDS011;6408;59.388;17.798;2023-04-29T05:56:59;3.63;;;1.50;;
12687;SDS011;6408;59.388;17.798;2023-04-29T05:59:28;1.50;;;1.37;;
12687;SDS011;6408;59.388;17.798;2023-04-29T06:01:56;4.70;;;2.33;;
12687;SDS011;6408;59.388;17.798;2023-04-29T06:04:23;1.73;;;1.40;;
12687;SDS011;6408;59.388;17.798;2023-04-29T06:06:51;3.63;;;1.70;;
12687;SDS011;6408;59.388;17.798;2023-04-29T06:09:18;2.53;;;1.30;;
12687;SDS011;6408;59.388;17.798;2023-04-29T06:11:46;1.97;;;1.60;;
12687;SDS011;6408;59.388;17.798;2023-04-29T06:14:15;3.10;;;1.33;;
12687;SDS011;6408;59.388;17.798;2023-04-29T06:16:42;1.93;;;1.20;;
12687;SDS011;6408;59.388;17.798;2023-04-29T06:19:09;1.83;;;1.30;;
12687;SDS011;6408;59.388;17.798;2023-04-29T06:21:37;2.33;;;1.40;;
12687;SDS011;6408;59.388;17.798;2023-04-29T06:24:04;3.23;;;1.60;;
12687;SDS011;6408;59.388;17.798;2023-04-29T06:26:32;2.30;;;1.30;;
12687;SDS011;6408;59.388;17.798;2023-04-29T06:28:59;3.10;;;1.40;;
12687;SDS011;6408;59.388;17.798;2023-04-29T06:31:28;1.70;;;1.33;;
12687;SDS011;6408;59.388;17.798;2023-04-29T06:33:55;1.77;;;1.03;;
12687;SDS011;6408;59.388;17.798;2023-04-29T06:36:22;2.67;;;1.60;;
12687;SDS011;6408;59.388;17.798;2023-04-29T06:38:51;2.77;;;1.40;;
12687;SDS011;6408;59.388;17.798;2023-04-29T06:41:18;2.33;;;1.63;;
12687;SDS011;6408;59.388;17.798;2023-04-29T06:43:45;2.30;;;1.60;;
12687;SDS011;6408;59.388;17.798;2023-04-29T06:46:12;3.47;;;1.50;;
12687;SDS011;6408;59.388;17.798;2023-04-29T06:48:41;5.03;;;1.20;;
12687;SDS011;6408;59.388;17.798;2023-04-29T06:51:08;3.00;;;1.20;;
12687;SDS011;6408;59.388;17.798;2023-04-29T06:53:36;2.83;;;1.17;;
12687;SDS011;6408;59.388;17.798;2023-04-29T06:56:03;2.50;;;1.30;;
12687;SDS011;6408;59.388;17.798;2023-04-29T06:58:31;2.27;;;1.10;;
12687;SDS011;6408;59.388;17.798;2023-04-29T07:00:59;1.53;;;1.07;;
12687;SDS011;6408;59.388;17.798;2023-04-29T07:03:27;2.20;;;1.23;;
12687;SDS011;6408;59.388;17.798;2023-04-29T07:05:56;1.43;;;1.10;;
12687;SDS011;6408;59.388;17.798;2023-04-29T07:08:23;1.83;;;1.10;;
12687;SDS011;6408;59.388;17.798;2023-04-29T07:10:53;1.30;;;1.20;;
12687;SDS011;6408;59.388;17.798;2023-04-29T07:13:22;2.50;;;1.13;;
12687;SDS011;6408;59.388;17.798;2023-04-29T07:15:49;2.23;;;1.10;;
12687;SDS011;6408;59.388;17.798;2023-04-29T07:18:16;2.80;;;1.10;;
12687;SDS011;6408;59.388;17.798;2023-04-29T07:20:44;2.13;;;1.10;;
12687;SDS011;6408;59.388;17.798;2023-04-29T07:23:13;0.90;;;0.90;;
12687;SDS011;6408;59.388;17.798;2023-04-29T07:25:40;2.30;;;1.10;;
12687;SDS011;6408;59.388;17.798;2023-04-29T07:28:08;1.53;;;1.00;;
12687;SDS011;6408;59.388;17.798;2023-04-29T07:30:35;1.50;;;1.10;;
12687;SDS011;6408;59.388;17.798;2023-04-29T07:33:02;3.97;;;1.30;;
12687;SDS011;6408;59.388;17.798;2023-04-29T07:35:30;1.50;;;1.10;;
12687;SDS011;6408;59.388;17.798;2023-04-29T07:37:58;2.60;;;1.10;;
12687;SDS011;6408;59.388;17.798;2023-04-29T07:40:26;1.43;;;1.00;;
12687;SDS011;6408;59.388;17.798;2023-04-29T07:42:54;1.77;;;1.10;;
12687;SDS011;6408;59.388;17.798;2023-04-29T07:45:21;1.80;;;1.10;;
12687;SDS011;6408;59.388;17.798;2023-04-29T07:47:48;1.23;;;0.93;;
12687;SDS011;6408;59.388;17.798;2023-04-29T07:50:16;1.20;;;1.00;;
12687;SDS011;6408;59.388;17.798;2023-04-29T07:52:43;2.40;;;1.00;;
12687;SDS011;6408;59.388;17.798;2023-04-29T07:55:10;1.40;;;0.97;;
12687;SDS011;6408;59.388;17.798;2023-04-29T07:57:39;1.40;;;0.90;;
12687;SDS011;6408;59.388;17.798;2023-04-29T08:00:07;2.10;;;1.00;;
12687;SDS011;6408;59.388;17.798;2023-04-29T08:02:36;1.83;;;0.90;;
12687;SDS011;6408;59.388;17.798;2023-04-29T08:05:03;1.93;;;1.00;;
12687;SDS011;6408;59.388;17.798;2023-04-29T08:07:31;1.83;;;0.90;;
12687;SDS011;6408;59.388;17.798;2023-04-29T08:09:58;1.53;;;1.20;;
12687;SDS011;6408;59.388;17.798;2023-04-29T08:12:25;1.83;;;1.07;;
12687;SDS011;6408;59.388;17.798;2023-04-29T08:14:54;5.73;;;1.27;;
12687;SDS011;6408;59.388;17.798;2023-04-29T08:17:21;3.50;;;1.23;;
12687;SDS011;6408;59.388;17.798;2023-04-29T08:19:48;1.20;;;0.90;;
12687;SDS011;6408;59.388;17.798;2023-04-29T08:22:16;3.40;;;1.00;;
12687;SDS011;6408;59.388;17.798;2023-04-29T08:24:43;2.33;;;1.23;;
12687;SDS011;6408;59.388;17.798;2023-04-29T08:27:11;3.70;;;1.77;;
12687;SDS011;6408;59.388;17.798;2023-04-29T08:29:39;1.20;;;1.10;;
12687;SDS011;6408;59.388;17.798;2023-04-29T08:32:08;1.60;;;1.07;;
12687;SDS011;6408;59.388;17.798;2023-04-29T08:34:36;2.00;;;1.80;;
12687;SDS011;6408;59.388;17.798;2023-04-29T08:37:03;5.33;;;2.00;;
12687;SDS011;6408;59.388;17.798;2023-04-29T08:39:30;1.10;;;1.00;;
12687;SDS011;6408;59.388;17.798;2023-04-29T08:41:58;1.05;;;0.98;;
12687;SDS011;6408;59.388;17.798;2023-04-29T08:44:26;1.73;;;0.97;;
12687;SDS011;6408;59.388;17.798;2023-04-29T08:46:54;1.25;;;1.00;;
12687;SDS011;6408;59.388;17.798;2023-04-29T08:49:24;1.38;;;1.00;;
12687;SDS011;6408;59.388;17.798;2023-04-29T08:51:53;1.65;;;0.80;;
12687;SDS011;6408;59.388;17.798;2023-04-29T08:54:20;1.55;;;1.00;;
12687;SDS011;6408;59.388;17.798;2023-04-29T08:56:48;2.78;;;1.10;;
12687;SDS011;6408;59.388;17.798;2023-04-29T08:59:17;0.85;;;0.80;;
12687;SDS011;6408;59.388;17.798;2023-04-29T09:01:45;1.58;;;0.95;;
12687;SDS011;6408;59.388;17.798;2023-04-29T09:04:20;2.13;;;1.00;;
12687;SDS011;6408;59.388;17.798;2023-04-29T09:06:55;2.05;;;1.20;;
12687;SDS011;6408;59.388;17.798;2023-04-29T09:09:24;1.60;;;1.00;;
12687;SDS011;6408;59.388;17.798;2023-04-29T09:11:52;1.80;;;0.77;;
12687;SDS011;6408;59.388;17.798;2023-04-29T09:14:20;0.80;;;0.80;;
12687;SDS011;6408;59.388;17.798;2023-04-29T09:16:49;1.97;;;0.90;;
12687;SDS011;6408;59.388;17.798;2023-04-29T09:19:31;1.53;;;1.03;;
12687;SDS011;6408;59.388;17.798;2023-04-29T09:21:59;2.20;;;1.00;;
12687;SDS011;6408;59.388;17.798;2023-04-29T09:24:27;1.33;;;0.93;;
12687;SDS011;6408;59.388;17.798;2023-04-29T09:26:55;1.23;;;1.00;;
12687;SDS011;6408;59.388;17.798;2023-04-29T09:29:24;2.80;;;1.25;;
12687;SDS011;6408;59.388;17.798;2023-04-29T09:31:52;2.57;;;1.30;;
12687;SDS011;6408;59.388;17.798;2023-04-29T09:34:31;2.43;;;1.00;;
12687;SDS011;6408;59.388;17.798;2023-04-29T09:36:59;4.83;;;1.20;;
12687;SDS011;6408;59.388;17.798;2023-04-29T09:39:27;2.10;;;1.40;;
12687;SDS011;6408;59.388;17.798;2023-04-29T09:42:05;1.93;;;0.90;;
12687;SDS011;6408;59.388;17.798;2023-04-29T09:44:33;1.87;;;1.13;;
12687;SDS011;6408;59.388;17.798;2023-04-29T09:47:01;2.87;;;1.20;;
12687;SDS011;6408;59.388;17.798;2023-04-29T09:49:33;1.50;;;1.20;;
12687;SDS011;6408;59.388;17.798;2023-04-29T09:52:03;1.63;;;0.90;;
12687;SDS011;6408;59.388;17.798;2023-04-29T09:54:32;2.97;;;1.20;;
12687;SDS011;6408;59.388;17.798;2023-04-29T09:57:01;5.93;;;1.27;;
12687;SDS011;6408;59.388;17.798;2023-04-29T09:59:30;3.10;;;1.13;;
12687;SDS011;6408;59.388;17.798;2023-04-29T10:02:00;4.17;;;1.10;;
12687;SDS011;6408;59.388;17.798;2023-04-29T10:04:33;3.83;;;1.10;;
12687;SDS011;6408;59.388;17.798;2023-04-29T10:07:03;3.90;;;1.60;;
12687;SDS011;6408;59.388;17.798;2023-04-29T10:09:31;2.23;;;1.33;;
12687;SDS011;6408;59.388;17.798;2023-04-29T10:12:00;3.47;;;1.30;;
12687;SDS011;6408;59.388;17.798;2023-04-29T10:14:28;2.67;;;1.30;;
12687;SDS011;6408;59.388;17.798;2023-04-29T10:17:02;4.17;;;1.43;;
12687;SDS011;6408;59.388;17.798;2023-04-29T10:19:38;5.97;;;1.47;;
12687;SDS011;6408;59.388;17.798;2023-04-29T10:22:14;4.57;;;1.60;;
12687;SDS011;6408;59.388;17.798;2023-04-29T10:24:48;5.70;;;1.43;;
12687;SDS011;6408;59.388;17.798;2023-04-29T10:27:15;2.83;;;1.40;;
12687;SDS011;6408;59.388;17.798;2023-04-29T10:29:45;4.33;;;1.47;;
12687;SDS011;6408;59.388;17.798;2023-04-29T10:32:14;2.00;;;1.30;;
12687;SDS011;6408;59.388;17.798;2023-04-29T10:34:44;4.53;;;1.57;;
12687;SDS011;6408;59.388;17.798;2023-04-29T10:37:12;1.33;;;1.10;;
12687;SDS011;6408;59.388;17.798;2023-04-29T10:39:41;3.43;;;1.20;;
12687;SDS011;6408;59.388;17.798;2023-04-29T10:42:19;3.70;;;1.87;;
12687;SDS011;6408;59.388;17.798;2023-04-29T10:51:02;2.33;;;1.23;;
12687;SDS011;6408;59.388;17.798;2023-04-29T10:53:30;4.47;;;1.53;;
12687;SDS011;6408;59.388;17.798;2023-04-29T10:56:04;2.53;;;1.37;;
12687;SDS011;6408;59.388;17.798;2023-04-29T10:58:36;3.53;;;1.40;;
12687;SDS011;6408;59.388;17.798;2023-04-29T11:01:04;2.27;;;1.30;;
12687;SDS011;6408;59.388;17.798;2023-04-29T11:03:44;3.53;;;1.00;;
12687;SDS011;6408;59.388;17.798;2023-04-29T11:06:15;1.60;;;1.40;;
12687;SDS011;6408;59.388;17.798;2023-04-29T11:08:43;4.03;;;1.10;;
12687;SDS011;6408;59.388;17.798;2023-04-29T11:11:12;1.93;;;1.10;;
12687;SDS011;6408;59.388;17.798;2023-04-29T11:13:40;3.03;;;1.30;;
12687;SDS011;6408;59.388;17.798;2023-04-29T11:16:12;1.50;;;1.10;;
12687;SDS011;6408;59.388;17.798;2023-04-29T11:21:35;1.10;;;1.00;;
12687;SDS011;6408;59.388;17.798;2023-04-29T11:24:03;1.33;;;1.00;;
12687;SDS011;6408;59.388;17.798;2023-04-29T11:26:33;3.67;;;1.80;;
12687;SDS011;6408;59.388;17.798;2023-04-29T11:29:01;3.00;;;1.50;;
12687;SDS011;6408;59.388;17.798;2023-04-29T11:31:29;2.30;;;1.10;;
12687;SDS011;6408;59.388;17.798;2023-04-29T11:33:57;3.07;;;1.10;;
12687;SDS011;6408;59.388;17.798;2023-04-29T11:36:24;2.47;;;1.00;;
12687;SDS011;6408;59.388;17.798;2023-04-29T11:38:55;2.20;;;1.10;;
12687;SDS011;6408;59.388;17.798;2023-04-29T11:41:22;3.53;;;0.90;;
12687;SDS011;6408;59.388;17.798;2023-04-29T11:43:53;2.17;;;1.10;;
12687;SDS011;6408;59.388;17.798;2023-04-29T11:46:22;1.97;;;0.97;;
12687;SDS011;6408;59.388;17.798;2023-04-29T11:48:50;3.17;;;1.30;;
12687;SDS011;6408;59.388;17.798;2023-04-29T11:51:17;2.23;;;0.93;;
12687;SDS011;6408;59.388;17.798;2023-04-29T11:53:46;2.67;;;1.10;;
12687;SDS011;6408;59.388;17.798;2023-04-29T11:56:15;2.13;;;1.03;;
12687;SDS011;6408;59.388;17.798;2023-04-29T11:58:43;2.10;;;0.90;;
12687;SDS011;6408;59.388;17.798;2023-04-29T12:01:11;3.80;;;1.00;;
12687;SDS011;6408;59.388;17.798;2023-04-29T12:03:38;2.90;;;1.10;;
12687;SDS011;6408;59.388;17.798;2023-04-29T12:06:07;5.83;;;1.40;;
12687;SDS011;6408;59.388;17.798;2023-04-29T12:08:35;3.93;;;1.20;;
12687;SDS011;6408;59.388;17.798;2023-04-29T12:11:02;1.50;;;1.27;;
12687;SDS011;6408;59.388;17.798;2023-04-29T12:13:35;4.83;;;1.27;;
12687;SDS011;6408;59.388;17.798;2023-04-29T12:16:03;2.33;;;1.00;;
12687;SDS011;6408;59.388;17.798;2023-04-29T12:18:31;3.90;;;1.20;;
12687;SDS011;6408;59.388;17.798;2023-04-29T12:20:59;3.20;;;1.20;;
12687;SDS011;6408;59.388;17.798;2023-04-29T12:23:26;1.43;;;1.10;;
12687;SDS011;6408;59.388;17.798;2023-04-29T12:25:55;3.00;;;1.27;;
12687;SDS011;6408;59.388;17.798;2023-04-29T12:28:24;3.90;;;1.43;;
12687;SDS011;6408;59.388;17.798;2023-04-29T12:30:55;2.90;;;1.03;;
12687;SDS011;6408;59.388;17.798;2023-04-29T12:33:26;1.73;;;1.30;;
12687;SDS011;6408;59.388;17.798;2023-04-29T12:35:56;4.00;;;1.30;;
12687;SDS011;6408;59.388;17.798;2023-04-29T12:38:24;3.43;;;1.30;;
12687;SDS011;6408;59.388;17.798;2023-04-29T12:40:53;4.20;;;1.50;;
12687;SDS011;6408;59.388;17.798;2023-04-29T12:43:24;3.07;;;1.30;;
12687;SDS011;6408;59.388;17.798;2023-04-29T12:45:57;5.33;;;1.60;;
12687;SDS011;6408;59.388;17.798;2023-04-29T12:48:28;2.50;;;1.47;;
12687;SDS011;6408;59.388;17.798;2023-04-29T12:50:57;2.90;;;1.60;;
12687;SDS011;6408;59.388;17.798;2023-04-29T12:53:26;4.03;;;1.50;;
12687;SDS011;6408;59.388;17.798;2023-04-29T12:55:55;4.67;;;1.80;;
12687;SDS011;6408;59.388;17.798;2023-04-29T12:58:23;4.80;;;1.90;;
12687;SDS011;6408;59.388;17.798;2023-04-29T13:00:56;3.80;;;1.60;;
12687;SDS011;6408;59.388;17.798;2023-04-29T13:03:24;4.17;;;1.70;;
12687;SDS011;6408;59.388;17.798;2023-04-29T13:05:51;4.93;;;1.70;;
12687;SDS011;6408;59.388;17.798;2023-04-29T13:08:19;3.43;;;1.87;;
12687;SDS011;6408;59.388;17.798;2023-04-29T13:10:47;2.97;;;1.60;;
12687;SDS011;6408;59.388;17.798;2023-04-29T13:13:14;4.07;;;1.80;;
12687;SDS011;6408;59.388;17.798;2023-04-29T13:15:42;4.93;;;1.90;;
12687;SDS011;6408;59.388;17.798;2023-04-29T13:18:12;2.13;;;1.50;;
12687;SDS011;6408;59.388;17.798;2023-04-29T13:20:39;5.27;;;1.80;;
12687;SDS011;6408;59.388;17.798;2023-04-29T13:23:07;3.97;;;1.87;;
12687;SDS011;6408;59.388;17.798;2023-04-29T13:25:36;3.33;;;1.80;;
12687;SDS011;6408;59.388;17.798;2023-04-29T13:28:03;4.47;;;2.33;;
12687;SDS011;6408;59.388;17.798;2023-04-29T13:30:31;5.17;;;1.70;;
12687;SDS011;6408;59.388;17.798;2023-04-29T13:32:59;5.63;;;1.80;;
12687;SDS011;6408;59.388;17.798;2023-04-29T13:35:28;2.97;;;1.70;;
12687;SDS011;6408;59.388;17.798;2023-04-29T13:37:56;3.57;;;1.90;;
12687;SDS011;6408;59.388;17.798;2023-04-29T13:40:23;1.83;;;1.53;;
12687;SDS011;6408;59.388;17.798;2023-04-29T13:42:51;4.20;;;1.47;;
12687;SDS011;6408;59.388;17.798;2023-04-29T13:45:18;5.23;;;1.80;;
12687;SDS011;6408;59.388;17.798;2023-04-29T13:47:46;2.17;;;1.30;;
12687;SDS011;6408;59.388;17.798;2023-04-29T13:50:13;4.73;;;1.87;;
12687;SDS011;6408;59.388;17.798;2023-04-29T13:52:42;2.87;;;2.00;;
12687;SDS011;6408;59.388;17.798;2023-04-29T13:55:10;4.47;;;2.00;;
12687;SDS011;6408;59.388;17.798;2023-04-29T13:57:37;3.73;;;1.50;;
12687;SDS011;6408;59.388;17.798;2023-04-29T14:00:05;3.93;;;2.03;;
12687;SDS011;6408;59.388;17.798;2023-04-29T14:02:34;2.20;;;1.70;;
12687;SDS011;6408;59.388;17.798;2023-04-29T14:05:02;3.70;;;1.70;;
12687;SDS011;6408;59.388;17.798;2023-04-29T14:07:31;4.70;;;1.70;;
12687;SDS011;6408;59.388;17.798;2023-04-29T14:10:00;3.83;;;1.90;;
12687;SDS011;6408;59.388;17.798;2023-04-29T14:12:28;4.57;;;1.90;;
12687;SDS011;6408;59.388;17.798;2023-04-29T14:14:55;4.33;;;1.57;;
12687;SDS011;6408;59.388;17.798;2023-04-29T14:17:23;4.90;;;1.70;;
12687;SDS011;6408;59.388;17.798;2023-04-29T14:19:51;5.00;;;1.60;;
12687;SDS011;6408;59.388;17.798;2023-04-29T14:22:19;3.87;;;1.93;;
12687;SDS011;6408;59.388;17.798;2023-04-29T14:24:47;3.00;;;2.17;;
12687;SDS011;6408;59.388;17.798;2023-04-29T14:27:16;5.40;;;2.50;;
12687;SDS011;6408;59.388;17.798;2023-04-29T14:29:45;3.43;;;2.30;;
12687;SDS011;6408;59.388;17.798;2023-04-29T14:32:13;4.30;;;3.37;;
12687;SDS011;6408;59.388;17.798;2023-04-29T14:34:40;5.63;;;3.67;;
12687;SDS011;6408;59.388;17.798;2023-04-29T14:37:07;8.23;;;3.43;;
12687;SDS011;6408;59.388;17.798;2023-04-29T14:39:35;4.50;;;2.10;;
12687;SDS011;6408;59.388;17.798;2023-04-29T14:42:03;3.93;;;1.97;;
12687;SDS011;6408;59.388;17.798;2023-04-29T14:44:32;3.10;;;2.30;;
12687;SDS011;6408;59.388;17.798;2023-04-29T14:47:00;7.37;;;2.40;;
12687;SDS011;6408;59.388;17.798;2023-04-29T14:49:27;4.37;;;2.10;;
12687;SDS011;6408;59.388;17.798;2023-04-29T14:51:54;4.40;;;1.90;;
12687;SDS011;6408;59.388;17.798;2023-04-29T14:54:22;3.90;;;2.47;;
12687;SDS011;6408;59.388;17.798;2023-04-29T14:56:51;3.97;;;2.23;;
12687;SDS011;6408;59.388;17.798;2023-04-29T14:59:18;5.40;;;2.30;;
12687;SDS011;6408;59.388;17.798;2023-04-29T15:01:48;5.33;;;2.30;;
12687;SDS011;6408;59.388;17.798;2023-04-29T15:04:15;3.77;;;2.13;;
12687;SDS011;6408;59.388;17.798;2023-04-29T15:06:43;4.77;;;2.37;;